sensor_id;sensor_type;location;lat;lon;timestamp;P1;durP1;ratioP1;P2;durP2;ratioP2
36445;SDS011;22472;50.848;-1.216;2023-06-22T00:01:45;14.00;;;11.68;;
36445;SDS011;22472;50.848;-1.216;2023-06-22T00:04:12;16.52;;;10.98;;
36445;SDS011;22472;50.848;-1.216;2023-06-22T00:06:40;15.05;;;10.50;;
36445;SDS011;22472;50.848;-1.216;2023-06-22T00:09:07;16.60;;;10.90;;
36445;SDS011;22472;50.848;-1.216;2023-06-22T00:11:36;16.67;;;11.00;;
36445;SDS011;22472;50.848;-1.216;2023-06-22T00:14:04;12.48;;;9.85;;
36445;SDS011;22472;50.848;-1.216;2023-06-22T00:16:31;20.40;;;13.93;;
36445;SDS011;22472;50.848;-1.216;2023-06-22T00:18:59;20.77;;;13.38;;
36445;SDS011;22472;50.848;-1.216;2023-06-22T00:21:27;20.45;;;14.75;;
36445;SDS011;22472;50.848;-1.216;2023-06-22T00:23:54;19.83;;;15.02;;
36445;SDS011;22472;50.848;-1.216;2023-06-22T00:26:22;18.65;;;13.10;;
36445;SDS011;22472;50.848;-1.216;2023-06-22T00:28:51;16.85;;;12.10;;
36445;SDS011;22472;50.848;-1.216;2023-06-22T00:31:18;14.82;;;11.13;;
36445;SDS011;22472;50.848;-1.216;2023-06-22T00:33:45;15.77;;;10.98;;
36445;SDS011;22472;50.848;-1.216;2023-06-22T00:36:13;13.57;;;10.48;;
36445;SDS011;22472;50.848;-1.216;2023-06-22T00:38:42;14.80;;;10.68;;
36445;SDS011;22472;50.848;-1.216;2023-06-22T00:41:10;12.70;;;8.80;;
36445;SDS011;22472;50.848;-1.216;2023-06-22T00:43:37;10.68;;;9.13;;
36445;SDS011;22472;50.848;-1.216;2023-06-22T00:46:07;15.75;;;10.65;;
36445;SDS011;22472;50.848;-1.216;2023-06-22T00:48:34;14.30;;;11.60;;
36445;SDS011;22472;50.848;-1.216;2023-06-22T00:51:02;14.90;;;11.63;;
36445;SDS011;22472;50.848;-1.216;2023-06-22T00:53:30;12.02;;;10.43;;
36445;SDS011;22472;50.848;-1.216;2023-06-22T00:56:00;15.18;;;9.88;;
36445;SDS011;22472;50.848;-1.216;2023-06-22T00:58:28;9.43;;;8.43;;
36445;SDS011;22472;50.848;-1.216;2023-06-22T01:00:55;12.05;;;8.73;;
36445;SDS011;22472;50.848;-1.216;2023-06-22T01:03:26;12.85;;;10.25;;
36445;SDS011;22472;50.848;-1.216;2023-06-22T01:05:53;14.02;;;10.38;;
36445;SDS011;22472;50.848;-1.216;2023-06-22T02:06:21;16.25;;;12.05;;
36445;SDS011;22472;50.848;-1.216;2023-06-22T02:08:51;14.93;;;10.30;;
36445;SDS011;22472;50.848;-1.216;2023-06-22T02:11:21;15.77;;;11.55;;
36445;SDS011;22472;50.848;-1.216;2023-06-22T02:13:48;11.52;;;8.35;;
36445;SDS011;22472;50.848;-1.216;2023-06-22T02:16:16;13.45;;;9.88;;
36445;SDS011;22472;50.848;-1.216;2023-06-22T02:18:46;12.63;;;8.13;;
36445;SDS011;22472;50.848;-1.216;2023-06-22T02:21:16;7.90;;;6.97;;
36445;SDS011;22472;50.848;-1.216;2023-06-22T02:23:44;11.43;;;8.57;;
36445;SDS011;22472;50.848;-1.216;2023-06-22T02:26:12;10.50;;;7.55;;
36445;SDS011;22472;50.848;-1.216;2023-06-22T02:28:39;13.38;;;10.50;;
36445;SDS011;22472;50.848;-1.216;2023-06-22T02:31:07;11.77;;;9.18;;
36445;SDS011;22472;50.848;-1.216;2023-06-22T02:33:34;14.38;;;9.85;;
36445;SDS011;22472;50.848;-1.216;2023-06-22T02:36:02;11.40;;;8.80;;
36445;SDS011;22472;50.848;-1.216;2023-06-22T02:38:30;18.17;;;14.88;;
36445;SDS011;22472;50.848;-1.216;2023-06-22T02:41:00;13.93;;;10.35;;
36445;SDS011;22472;50.848;-1.216;2023-06-22T02:43:28;13.32;;;9.35;;
36445;SDS011;22472;50.848;-1.216;2023-06-22T02:45:55;13.13;;;10.13;;
36445;SDS011;22472;50.848;-1.216;2023-06-22T02:48:22;13.43;;;10.70;;
36445;SDS011;22472;50.848;-1.216;2023-06-22T02:50:50;14.27;;;8.77;;
36445;SDS011;22472;50.848;-1.216;2023-06-22T02:53:17;11.63;;;8.73;;
36445;SDS011;22472;50.848;-1.216;2023-06-22T02:55:44;12.50;;;8.50;;
36445;SDS011;22472;50.848;-1.216;2023-06-22T02:58:13;10.68;;;7.97;;
36445;SDS011;22472;50.848;-1.216;2023-06-22T03:00:41;11.98;;;8.38;;
36445;SDS011;22472;50.848;-1.216;2023-06-22T03:03:09;10.57;;;8.13;;
36445;SDS011;22472;50.848;-1.216;2023-06-22T03:05:36;13.60;;;9.30;;
36445;SDS011;22472;50.848;-1.216;2023-06-22T03:08:05;12.13;;;9.15;;
36445;SDS011;22472;50.848;-1.216;2023-06-22T03:10:32;9.00;;;7.72;;
36445;SDS011;22472;50.848;-1.216;2023-06-22T03:12:59;12.02;;;8.32;;
36445;SDS011;22472;50.848;-1.216;2023-06-22T03:15:28;14.25;;;9.30;;
36445;SDS011;22472;50.848;-1.216;2023-06-22T03:17:56;9.75;;;7.97;;
36445;SDS011;22472;50.848;-1.216;2023-06-22T03:20:23;10.95;;;9.38;;
36445;SDS011;22472;50.848;-1.216;2023-06-22T03:22:52;9.43;;;7.65;;
36445;SDS011;22472;50.848;-1.216;2023-06-22T03:25:19;10.93;;;8.48;;
36445;SDS011;22472;50.848;-1.216;2023-06-22T03:27:46;10.85;;;9.48;;
36445;SDS011;22472;50.848;-1.216;2023-06-22T03:30:14;10.38;;;8.75;;
36445;SDS011;22472;50.848;-1.216;2023-06-22T03:32:42;14.25;;;9.40;;
36445;SDS011;22472;50.848;-1.216;2023-06-22T03:35:11;8.32;;;7.20;;
36445;SDS011;22472;50.848;-1.216;2023-06-22T03:37:39;7.90;;;7.10;;
36445;SDS011;22472;50.848;-1.216;2023-06-22T03:40:07;11.65;;;8.88;;
36445;SDS011;22472;50.848;-1.216;2023-06-22T03:42:34;10.57;;;8.27;;
36445;SDS011;22472;50.848;-1.216;2023-06-22T03:45:02;7.82;;;6.38;;
36445;SDS011;22472;50.848;-1.216;2023-06-22T03:47:29;7.78;;;6.20;;
36445;SDS011;22472;50.848;-1.216;2023-06-22T03:49:58;7.47;;;5.88;;
36445;SDS011;22472;50.848;-1.216;2023-06-22T03:52:25;10.40;;;8.65;;
36445;SDS011;22472;50.848;-1.216;2023-06-22T03:54:52;9.95;;;7.13;;
36445;SDS011;22472;50.848;-1.216;2023-06-22T03:57:20;7.85;;;6.32;;
36445;SDS011;22472;50.848;-1.216;2023-06-22T03:59:47;9.95;;;7.00;;
36445;SDS011;22472;50.848;-1.216;2023-06-22T04:02:14;9.77;;;6.88;;
36445;SDS011;22472;50.848;-1.216;2023-06-22T04:04:41;6.15;;;5.43;;
36445;SDS011;22472;50.848;-1.216;2023-06-22T04:07:10;13.85;;;7.88;;
36445;SDS011;22472;50.848;-1.216;2023-06-22T04:09:37;10.63;;;8.23;;
36445;SDS011;22472;50.848;-1.216;2023-06-22T04:12:05;8.68;;;6.60;;
36445;SDS011;22472;50.848;-1.216;2023-06-22T04:14:32;11.18;;;7.25;;
36445;SDS011;22472;50.848;-1.216;2023-06-22T04:17:00;8.02;;;6.13;;
36445;SDS011;22472;50.848;-1.216;2023-06-22T04:19:27;9.30;;;8.23;;
36445;SDS011;22472;50.848;-1.216;2023-06-22T04:21:54;12.95;;;7.70;;
36445;SDS011;22472;50.848;-1.216;2023-06-22T04:24:23;11.63;;;7.93;;
36445;SDS011;22472;50.848;-1.216;2023-06-22T04:26:50;12.68;;;8.15;;
36445;SDS011;22472;50.848;-1.216;2023-06-22T04:29:19;7.90;;;6.35;;
36445;SDS011;22472;50.848;-1.216;2023-06-22T04:31:55;13.02;;;7.97;;
36445;SDS011;22472;50.848;-1.216;2023-06-22T04:34:23;11.27;;;7.30;;
36445;SDS011;22472;50.848;-1.216;2023-06-22T04:36:52;14.90;;;8.43;;
36445;SDS011;22472;50.848;-1.216;2023-06-22T04:39:19;13.88;;;9.07;;
36445;SDS011;22472;50.848;-1.216;2023-06-22T04:41:48;10.85;;;8.60;;
36445;SDS011;22472;50.848;-1.216;2023-06-22T04:44:16;10.82;;;8.52;;
36445;SDS011;22472;50.848;-1.216;2023-06-22T04:46:49;15.07;;;9.20;;
36445;SDS011;22472;50.848;-1.216;2023-06-22T04:49:19;12.68;;;7.97;;
36445;SDS011;22472;50.848;-1.216;2023-06-22T04:51:47;12.18;;;9.23;;
36445;SDS011;22472;50.848;-1.216;2023-06-22T04:54:15;12.55;;;9.57;;
36445;SDS011;22472;50.848;-1.216;2023-06-22T04:56:42;14.73;;;9.70;;
36445;SDS011;22472;50.848;-1.216;2023-06-22T04:59:13;16.52;;;10.10;;
36445;SDS011;22472;50.848;-1.216;2023-06-22T05:01:40;10.93;;;8.25;;
36445;SDS011;22472;50.848;-1.216;2023-06-22T05:04:07;13.82;;;9.70;;
36445;SDS011;22472;50.848;-1.216;2023-06-22T05:06:34;17.80;;;9.32;;
36445;SDS011;22472;50.848;-1.216;2023-06-22T05:09:02;11.05;;;7.93;;
36445;SDS011;22472;50.848;-1.216;2023-06-22T05:11:30;13.40;;;9.15;;
36445;SDS011;22472;50.848;-1.216;2023-06-22T05:13:57;15.98;;;9.77;;
36445;SDS011;22472;50.848;-1.216;2023-06-22T05:16:26;11.23;;;8.32;;
36445;SDS011;22472;50.848;-1.216;2023-06-22T05:18:53;14.25;;;9.77;;
36445;SDS011;22472;50.848;-1.216;2023-06-22T05:21:21;12.10;;;8.00;;
36445;SDS011;22472;50.848;-1.216;2023-06-22T05:23:49;12.85;;;8.82;;
36445;SDS011;22472;50.848;-1.216;2023-06-22T05:26:17;13.63;;;8.90;;
36445;SDS011;22472;50.848;-1.216;2023-06-22T05:28:44;12.75;;;8.95;;
36445;SDS011;22472;50.848;-1.216;2023-06-22T05:31:12;13.82;;;8.77;;
36445;SDS011;22472;50.848;-1.216;2023-06-22T05:33:41;11.35;;;8.10;;
36445;SDS011;22472;50.848;-1.216;2023-06-22T05:36:08;13.77;;;8.07;;
36445;SDS011;22472;50.848;-1.216;2023-06-22T05:38:36;14.25;;;8.43;;
36445;SDS011;22472;50.848;-1.216;2023-06-22T05:41:03;12.65;;;7.93;;
36445;SDS011;22472;50.848;-1.216;2023-06-22T05:43:30;13.35;;;8.73;;
36445;SDS011;22472;50.848;-1.216;2023-06-22T05:45:58;13.23;;;8.73;;
36445;SDS011;22472;50.848;-1.216;2023-06-22T05:48:25;12.60;;;7.88;;
36445;SDS011;22472;50.848;-1.216;2023-06-22T05:50:54;11.32;;;6.55;;
36445;SDS011;22472;50.848;-1.216;2023-06-22T05:53:21;15.32;;;9.30;;
36445;SDS011;22472;50.848;-1.216;2023-06-22T05:55:48;11.68;;;7.72;;
36445;SDS011;22472;50.848;-1.216;2023-06-22T05:58:15;14.73;;;9.02;;
36445;SDS011;22472;50.848;-1.216;2023-06-22T06:00:43;15.38;;;9.57;;
36445;SDS011;22472;50.848;-1.216;2023-06-22T06:03:11;15.30;;;9.68;;
36445;SDS011;22472;50.848;-1.216;2023-06-22T06:05:42;11.80;;;8.00;;
36445;SDS011;22472;50.848;-1.216;2023-06-22T06:08:10;15.43;;;9.40;;
36445;SDS011;22472;50.848;-1.216;2023-06-22T06:10:38;12.05;;;8.52;;
36445;SDS011;22472;50.848;-1.216;2023-06-22T06:13:05;9.27;;;7.07;;
36445;SDS011;22472;50.848;-1.216;2023-06-22T06:15:33;12.75;;;8.30;;
36445;SDS011;22472;50.848;-1.216;2023-06-22T06:18:00;14.35;;;9.23;;
36445;SDS011;22472;50.848;-1.216;2023-06-22T06:20:30;12.27;;;8.33;;
36445;SDS011;22472;50.848;-1.216;2023-06-22T06:22:58;14.65;;;9.38;;
36445;SDS011;22472;50.848;-1.216;2023-06-22T06:25:27;12.00;;;8.23;;
36445;SDS011;22472;50.848;-1.216;2023-06-22T06:27:54;9.63;;;7.30;;
36445;SDS011;22472;50.848;-1.216;2023-06-22T06:30:21;14.38;;;8.93;;
36445;SDS011;22472;50.848;-1.216;2023-06-22T06:32:49;13.80;;;9.25;;
36445;SDS011;22472;50.848;-1.216;2023-06-22T06:35:17;12.85;;;8.60;;
36445;SDS011;22472;50.848;-1.216;2023-06-22T06:37:46;11.82;;;6.80;;
36445;SDS011;22472;50.848;-1.216;2023-06-22T06:40:13;10.82;;;8.48;;
36445;SDS011;22472;50.848;-1.216;2023-06-22T06:42:43;9.88;;;6.85;;
36445;SDS011;22472;50.848;-1.216;2023-06-22T06:45:10;10.60;;;8.60;;
36445;SDS011;22472;50.848;-1.216;2023-06-22T06:47:38;10.95;;;8.57;;
36445;SDS011;22472;50.848;-1.216;2023-06-22T06:50:06;10.15;;;7.25;;
36445;SDS011;22472;50.848;-1.216;2023-06-22T06:52:33;12.13;;;8.02;;
36445;SDS011;22472;50.848;-1.216;2023-06-22T06:55:01;9.52;;;7.63;;
36445;SDS011;22472;50.848;-1.216;2023-06-22T06:57:29;11.57;;;7.75;;
36445;SDS011;22472;50.848;-1.216;2023-06-22T06:59:58;11.40;;;8.43;;
36445;SDS011;22472;50.848;-1.216;2023-06-22T07:02:26;14.07;;;8.50;;
36445;SDS011;22472;50.848;-1.216;2023-06-22T07:04:54;11.63;;;7.85;;
36445;SDS011;22472;50.848;-1.216;2023-06-22T07:07:21;10.25;;;7.07;;
36445;SDS011;22472;50.848;-1.216;2023-06-22T07:09:49;9.45;;;6.57;;
36445;SDS011;22472;50.848;-1.216;2023-06-22T07:12:16;9.82;;;6.00;;
36445;SDS011;22472;50.848;-1.216;2023-06-22T07:14:43;8.50;;;5.70;;
36445;SDS011;22472;50.848;-1.216;2023-06-22T07:17:12;6.63;;;5.07;;
36445;SDS011;22472;50.848;-1.216;2023-06-22T07:19:39;9.70;;;5.55;;
36445;SDS011;22472;50.848;-1.216;2023-06-22T07:22:07;9.68;;;6.28;;
36445;SDS011;22472;50.848;-1.216;2023-06-22T07:24:34;9.93;;;6.78;;
36445;SDS011;22472;50.848;-1.216;2023-06-22T07:27:02;8.15;;;6.15;;
36445;SDS011;22472;50.848;-1.216;2023-06-22T07:29:31;7.20;;;6.47;;
36445;SDS011;22472;50.848;-1.216;2023-06-22T07:31:59;10.20;;;6.60;;
36445;SDS011;22472;50.848;-1.216;2023-06-22T07:34:31;6.10;;;5.28;;
36445;SDS011;22472;50.848;-1.216;2023-06-22T07:36:59;8.50;;;5.95;;
36445;SDS011;22472;50.848;-1.216;2023-06-22T07:39:26;8.73;;;6.90;;
36445;SDS011;22472;50.848;-1.216;2023-06-22T07:41:53;9.00;;;6.78;;
36445;SDS011;22472;50.848;-1.216;2023-06-22T07:44:21;11.38;;;6.95;;
36445;SDS011;22472;50.848;-1.216;2023-06-22T07:46:48;9.30;;;6.43;;
36445;SDS011;22472;50.848;-1.216;2023-06-22T07:49:16;7.15;;;5.15;;
36445;SDS011;22472;50.848;-1.216;2023-06-22T07:51:45;8.93;;;5.78;;
36445;SDS011;22472;50.848;-1.216;2023-06-22T07:54:12;7.43;;;6.05;;
36445;SDS011;22472;50.848;-1.216;2023-06-22T07:56:41;8.50;;;5.80;;
36445;SDS011;22472;50.848;-1.216;2023-06-22T07:59:08;5.88;;;5.25;;
36445;SDS011;22472;50.848;-1.216;2023-06-22T08:01:36;7.72;;;6.03;;
36445;SDS011;22472;50.848;-1.216;2023-06-22T08:04:03;8.00;;;6.28;;
36445;SDS011;22472;50.848;-1.216;2023-06-22T08:06:31;7.60;;;6.15;;
36445;SDS011;22472;50.848;-1.216;2023-06-22T08:08:59;7.15;;;5.40;;
36445;SDS011;22472;50.848;-1.216;2023-06-22T08:11:26;9.10;;;6.45;;
36445;SDS011;22472;50.848;-1.216;2023-06-22T08:13:54;8.00;;;5.90;;
36445;SDS011;22472;50.848;-1.216;2023-06-22T08:16:23;5.53;;;4.03;;
36445;SDS011;22472;50.848;-1.216;2023-06-22T08:18:51;5.30;;;4.05;;
36445;SDS011;22472;50.848;-1.216;2023-06-22T08:21:18;7.18;;;5.47;;
36445;SDS011;22472;50.848;-1.216;2023-06-22T08:23:45;6.65;;;5.10;;
36445;SDS011;22472;50.848;-1.216;2023-06-22T08:26:14;6.68;;;4.45;;
36445;SDS011;22472;50.848;-1.216;2023-06-22T08:28:41;5.38;;;4.22;;
36445;SDS011;22472;50.848;-1.216;2023-06-22T08:31:08;6.80;;;5.80;;
36445;SDS011;22472;50.848;-1.216;2023-06-22T08:33:37;9.15;;;5.20;;
36445;SDS011;22472;50.848;-1.216;2023-06-22T08:36:04;6.35;;;4.65;;
36445;SDS011;22472;50.848;-1.216;2023-06-22T08:38:33;6.78;;;4.97;;
36445;SDS011;22472;50.848;-1.216;2023-06-22T08:41:00;6.43;;;4.32;;
36445;SDS011;22472;50.848;-1.216;2023-06-22T08:43:29;5.47;;;4.60;;
36445;SDS011;22472;50.848;-1.216;2023-06-22T08:45:56;5.70;;;3.88;;
36445;SDS011;22472;50.848;-1.216;2023-06-22T08:48:23;7.90;;;4.10;;
36445;SDS011;22472;50.848;-1.216;2023-06-22T08:50:51;5.68;;;3.88;;
36445;SDS011;22472;50.848;-1.216;2023-06-22T08:53:18;6.85;;;4.78;;
36445;SDS011;22472;50.848;-1.216;2023-06-22T08:55:46;6.35;;;4.75;;
36445;SDS011;22472;50.848;-1.216;2023-06-22T08:58:13;7.55;;;5.50;;
36445;SDS011;22472;50.848;-1.216;2023-06-22T09:00:42;5.13;;;3.97;;
36445;SDS011;22472;50.848;-1.216;2023-06-22T09:03:09;4.68;;;3.70;;
36445;SDS011;22472;50.848;-1.216;2023-06-22T09:05:36;6.25;;;3.60;;
36445;SDS011;22472;50.848;-1.216;2023-06-22T09:08:04;6.50;;;3.38;;
36445;SDS011;22472;50.848;-1.216;2023-06-22T09:10:31;5.35;;;3.42;;
36445;SDS011;22472;50.848;-1.216;2023-06-22T09:12:58;6.53;;;3.50;;
36445;SDS011;22472;50.848;-1.216;2023-06-22T09:15:26;7.63;;;3.50;;
36445;SDS011;22472;50.848;-1.216;2023-06-22T09:17:55;5.40;;;3.47;;
36445;SDS011;22472;50.848;-1.216;2023-06-22T09:20:22;6.97;;;3.70;;
36445;SDS011;22472;50.848;-1.216;2023-06-22T09:22:50;5.53;;;3.10;;
36445;SDS011;22472;50.848;-1.216;2023-06-22T09:25:17;5.57;;;3.50;;
36445;SDS011;22472;50.848;-1.216;2023-06-22T09:27:46;5.60;;;3.40;;
36445;SDS011;22472;50.848;-1.216;2023-06-22T09:30:14;7.10;;;3.42;;
36445;SDS011;22472;50.848;-1.216;2023-06-22T09:32:41;5.50;;;3.58;;
36445;SDS011;22472;50.848;-1.216;2023-06-22T09:35:10;5.03;;;2.80;;
36445;SDS011;22472;50.848;-1.216;2023-06-22T09:37:38;3.97;;;3.28;;
36445;SDS011;22472;50.848;-1.216;2023-06-22T09:40:06;5.50;;;3.72;;
36445;SDS011;22472;50.848;-1.216;2023-06-22T09:42:36;5.20;;;3.10;;
36445;SDS011;22472;50.848;-1.216;2023-06-22T09:45:03;4.30;;;2.88;;
36445;SDS011;22472;50.848;-1.216;2023-06-22T09:47:31;3.92;;;2.78;;
36445;SDS011;22472;50.848;-1.216;2023-06-22T09:49:58;6.57;;;2.90;;
36445;SDS011;22472;50.848;-1.216;2023-06-22T09:52:27;5.88;;;2.80;;
36445;SDS011;22472;50.848;-1.216;2023-06-22T09:54:54;4.50;;;2.90;;
36445;SDS011;22472;50.848;-1.216;2023-06-22T09:57:21;3.03;;;2.38;;
36445;SDS011;22472;50.848;-1.216;2023-06-22T09:59:49;4.10;;;2.78;;
36445;SDS011;22472;50.848;-1.216;2023-06-22T10:02:16;4.32;;;2.55;;
36445;SDS011;22472;50.848;-1.216;2023-06-22T10:04:43;4.30;;;2.75;;
36445;SDS011;22472;50.848;-1.216;2023-06-22T10:07:10;3.45;;;1.85;;
36445;SDS011;22472;50.848;-1.216;2023-06-22T10:09:39;3.97;;;2.47;;
36445;SDS011;22472;50.848;-1.216;2023-06-22T10:12:07;5.00;;;2.22;;
36445;SDS011;22472;50.848;-1.216;2023-06-22T10:14:34;4.13;;;2.50;;
36445;SDS011;22472;50.848;-1.216;2023-06-22T10:17:02;3.63;;;2.20;;
36445;SDS011;22472;50.848;-1.216;2023-06-22T10:19:32;3.58;;;2.03;;
36445;SDS011;22472;50.848;-1.216;2023-06-22T10:24:29;3.40;;;2.10;;
36445;SDS011;22472;50.848;-1.216;2023-06-22T10:26:57;3.65;;;2.55;;
36445;SDS011;22472;50.848;-1.216;2023-06-22T10:29:25;2.92;;;2.08;;
36445;SDS011;22472;50.848;-1.216;2023-06-22T10:31:52;3.60;;;2.00;;
36445;SDS011;22472;50.848;-1.216;2023-06-22T10:34:19;4.63;;;2.20;;
36445;SDS011;22472;50.848;-1.216;2023-06-22T10:36:46;3.72;;;1.77;;
36445;SDS011;22472;50.848;-1.216;2023-06-22T10:39:14;2.83;;;1.60;;
36445;SDS011;22472;50.848;-1.216;2023-06-22T10:41:41;2.45;;;1.80;;
36445;SDS011;22472;50.848;-1.216;2023-06-22T10:44:10;2.22;;;1.50;;
36445;SDS011;22472;50.848;-1.216;2023-06-22T10:46:37;3.75;;;1.67;;
36445;SDS011;22472;50.848;-1.216;2023-06-22T10:49:04;4.20;;;1.48;;
36445;SDS011;22472;50.848;-1.216;2023-06-22T10:51:31;4.30;;;1.35;;
36445;SDS011;22472;50.848;-1.216;2023-06-22T10:53:59;3.38;;;1.50;;
36445;SDS011;22472;50.848;-1.216;2023-06-22T10:56:26;3.42;;;1.70;;
36445;SDS011;22472;50.848;-1.216;2023-06-22T10:58:53;4.93;;;1.98;;
36445;SDS011;22472;50.848;-1.216;2023-06-22T11:01:22;3.55;;;1.85;;
36445;SDS011;22472;50.848;-1.216;2023-06-22T11:03:49;3.00;;;1.67;;
36445;SDS011;22472;50.848;-1.216;2023-06-22T11:06:16;3.53;;;1.73;;
36445;SDS011;22472;50.848;-1.216;2023-06-22T11:08:44;2.38;;;1.83;;
36445;SDS011;22472;50.848;-1.216;2023-06-22T11:11:11;2.38;;;1.38;;
36445;SDS011;22472;50.848;-1.216;2023-06-22T11:13:38;3.15;;;1.77;;
36445;SDS011;22472;50.848;-1.216;2023-06-22T11:16:05;2.05;;;1.70;;
36445;SDS011;22472;50.848;-1.216;2023-06-22T11:18:34;3.15;;;1.90;;
36445;SDS011;22472;50.848;-1.216;2023-06-22T11:21:01;2.30;;;1.70;;
36445;SDS011;22472;50.848;-1.216;2023-06-22T11:23:29;2.10;;;1.58;;
36445;SDS011;22472;50.848;-1.216;2023-06-22T11:25:56;3.30;;;1.88;;
36445;SDS011;22472;50.848;-1.216;2023-06-22T11:28:23;2.00;;;1.60;;
36445;SDS011;22472;50.848;-1.216;2023-06-22T11:30:51;3.92;;;1.85;;
36445;SDS011;22472;50.848;-1.216;2023-06-22T11:33:18;2.30;;;2.08;;
36445;SDS011;22472;50.848;-1.216;2023-06-22T11:35:47;4.57;;;2.30;;
36445;SDS011;22472;50.848;-1.216;2023-06-22T11:38:14;4.10;;;2.13;;
36445;SDS011;22472;50.848;-1.216;2023-06-22T11:40:42;3.05;;;1.80;;
36445;SDS011;22472;50.848;-1.216;2023-06-22T11:43:09;4.03;;;1.75;;
36445;SDS011;22472;50.848;-1.216;2023-06-22T11:45:36;4.30;;;1.63;;
36445;SDS011;22472;50.848;-1.216;2023-06-22T11:48:04;3.42;;;1.60;;
36445;SDS011;22472;50.848;-1.216;2023-06-22T11:50:31;1.75;;;1.20;;
36445;SDS011;22472;50.848;-1.216;2023-06-22T11:55:29;2.33;;;1.30;;
36445;SDS011;22472;50.848;-1.216;2023-06-22T11:57:57;2.30;;;1.10;;
36445;SDS011;22472;50.848;-1.216;2023-06-22T12:00:28;2.63;;;1.27;;
36445;SDS011;22472;50.848;-1.216;2023-06-22T12:02:55;1.83;;;1.10;;
36445;SDS011;22472;50.848;-1.216;2023-06-22T12:05:22;1.92;;;1.27;;
36445;SDS011;22472;50.848;-1.216;2023-06-22T12:07:50;2.00;;;1.15;;
36445;SDS011;22472;50.848;-1.216;2023-06-22T12:10:17;1.92;;;1.25;;
36445;SDS011;22472;50.848;-1.216;2023-06-22T12:12:46;3.47;;;1.00;;
36445;SDS011;22472;50.848;-1.216;2023-06-22T12:15:13;2.40;;;1.25;;
36445;SDS011;22472;50.848;-1.216;2023-06-22T12:17:40;1.45;;;0.90;;
36445;SDS011;22472;50.848;-1.216;2023-06-22T12:20:08;2.90;;;0.90;;
36445;SDS011;22472;50.848;-1.216;2023-06-22T12:22:35;3.63;;;0.95;;
36445;SDS011;22472;50.848;-1.216;2023-06-22T12:25:03;1.50;;;1.05;;
36445;SDS011;22472;50.848;-1.216;2023-06-22T12:27:31;1.67;;;0.90;;
36445;SDS011;22472;50.848;-1.216;2023-06-22T12:29:59;1.75;;;1.20;;
36445;SDS011;22472;50.848;-1.216;2023-06-22T12:32:27;2.63;;;1.25;;
36445;SDS011;22472;50.848;-1.216;2023-06-22T12:34:54;3.63;;;2.13;;
36445;SDS011;22472;50.848;-1.216;2023-06-22T12:37:22;4.38;;;1.98;;
36445;SDS011;22472;50.848;-1.216;2023-06-22T12:39:49;2.60;;;1.52;;
36445;SDS011;22472;50.848;-1.216;2023-06-22T12:42:16;4.20;;;2.55;;
36445;SDS011;22472;50.848;-1.216;2023-06-22T12:44:43;3.50;;;2.20;;
36445;SDS011;22472;50.848;-1.216;2023-06-22T12:47:12;3.53;;;2.28;;
36445;SDS011;22472;50.848;-1.216;2023-06-22T12:49:39;3.97;;;2.60;;
36445;SDS011;22472;50.848;-1.216;2023-06-22T12:52:08;5.63;;;2.50;;
36445;SDS011;22472;50.848;-1.216;2023-06-22T12:54:36;4.65;;;2.63;;
36445;SDS011;22472;50.848;-1.216;2023-06-22T12:57:04;2.72;;;2.10;;
36445;SDS011;22472;50.848;-1.216;2023-06-22T12:59:31;2.85;;;2.40;;
36445;SDS011;22472;50.848;-1.216;2023-06-22T13:01:58;3.05;;;2.60;;
36445;SDS011;22472;50.848;-1.216;2023-06-22T13:04:27;3.92;;;2.78;;
36445;SDS011;22472;50.848;-1.216;2023-06-22T13:06:54;3.38;;;2.55;;
36445;SDS011;22472;50.848;-1.216;2023-06-22T13:09:21;3.20;;;2.60;;
36445;SDS011;22472;50.848;-1.216;2023-06-22T13:11:49;4.35;;;2.65;;
36445;SDS011;22472;50.848;-1.216;2023-06-22T13:14:17;3.90;;;2.75;;
36445;SDS011;22472;50.848;-1.216;2023-06-22T13:16:45;4.22;;;2.40;;
36445;SDS011;22472;50.848;-1.216;2023-06-22T13:19:12;3.83;;;2.70;;
36445;SDS011;22472;50.848;-1.216;2023-06-22T13:21:41;5.32;;;2.85;;
36445;SDS011;22472;50.848;-1.216;2023-06-22T13:24:08;3.92;;;2.67;;
36445;SDS011;22472;50.848;-1.216;2023-06-22T13:26:35;4.22;;;2.70;;
36445;SDS011;22472;50.848;-1.216;2023-06-22T13:29:02;3.88;;;2.90;;
36445;SDS011;22472;50.848;-1.216;2023-06-22T13:31:29;3.83;;;2.88;;
36445;SDS011;22472;50.848;-1.216;2023-06-22T13:33:57;5.80;;;2.70;;
36445;SDS011;22472;50.848;-1.216;2023-06-22T13:36:24;3.80;;;2.58;;
36445;SDS011;22472;50.848;-1.216;2023-06-22T13:38:53;4.22;;;2.97;;
36445;SDS011;22472;50.848;-1.216;2023-06-22T13:41:20;4.68;;;2.80;;
36445;SDS011;22472;50.848;-1.216;2023-06-22T13:43:47;3.38;;;2.58;;
36445;SDS011;22472;50.848;-1.216;2023-06-22T13:46:14;4.35;;;2.55;;
36445;SDS011;22472;50.848;-1.216;2023-06-22T13:48:42;3.42;;;2.85;;
36445;SDS011;22472;50.848;-1.216;2023-06-22T13:51:09;5.13;;;3.00;;
36445;SDS011;22472;50.848;-1.216;2023-06-22T13:53:36;2.92;;;2.20;;
36445;SDS011;22472;50.848;-1.216;2023-06-22T13:56:05;4.22;;;3.00;;
36445;SDS011;22472;50.848;-1.216;2023-06-22T13:58:32;4.80;;;3.00;;
36445;SDS011;22472;50.848;-1.216;2023-06-22T14:00:59;4.18;;;3.03;;
36445;SDS011;22472;50.848;-1.216;2023-06-22T14:03:27;6.25;;;3.00;;
36445;SDS011;22472;50.848;-1.216;2023-06-22T14:05:54;3.72;;;2.60;;
36445;SDS011;22472;50.848;-1.216;2023-06-22T14:08:23;4.70;;;2.83;;
36445;SDS011;22472;50.848;-1.216;2023-06-22T14:10:50;5.20;;;2.60;;
36445;SDS011;22472;50.848;-1.216;2023-06-22T14:13:20;5.35;;;2.60;;
36445;SDS011;22472;50.848;-1.216;2023-06-22T14:15:47;4.75;;;2.70;;
36445;SDS011;22472;50.848;-1.216;2023-06-22T14:18:17;3.88;;;2.83;;
36445;SDS011;22472;50.848;-1.216;2023-06-22T14:20:44;3.85;;;2.50;;
36445;SDS011;22472;50.848;-1.216;2023-06-22T14:23:12;4.03;;;2.22;;
36445;SDS011;22472;50.848;-1.216;2023-06-22T14:25:40;4.40;;;2.45;;
36445;SDS011;22472;50.848;-1.216;2023-06-22T14:28:07;4.85;;;2.50;;
36445;SDS011;22472;50.848;-1.216;2023-06-22T14:30:35;5.57;;;2.60;;
36445;SDS011;22472;50.848;-1.216;2023-06-22T14:33:03;3.60;;;2.45;;
36445;SDS011;22472;50.848;-1.216;2023-06-22T14:35:30;5.53;;;2.63;;
36445;SDS011;22472;50.848;-1.216;2023-06-22T14:37:57;4.45;;;2.40;;
36445;SDS011;22472;50.848;-1.216;2023-06-22T14:40:24;3.60;;;2.60;;
36445;SDS011;22472;50.848;-1.216;2023-06-22T14:42:52;4.15;;;2.22;;
36445;SDS011;22472;50.848;-1.216;2023-06-22T14:45:21;3.63;;;2.20;;
36445;SDS011;22472;50.848;-1.216;2023-06-22T14:47:50;3.70;;;2.30;;
36445;SDS011;22472;50.848;-1.216;2023-06-22T14:50:17;4.40;;;2.15;;
36445;SDS011;22472;50.848;-1.216;2023-06-22T14:52:44;5.45;;;2.30;;
36445;SDS011;22472;50.848;-1.216;2023-06-22T14:55:12;4.47;;;2.22;;
36445;SDS011;22472;50.848;-1.216;2023-06-22T14:57:39;4.85;;;2.08;;
36445;SDS011;22472;50.848;-1.216;2023-06-22T15:00:07;4.80;;;2.03;;
36445;SDS011;22472;50.848;-1.216;2023-06-22T15:02:34;5.65;;;2.20;;
36445;SDS011;22472;50.848;-1.216;2023-06-22T15:05:03;4.60;;;1.70;;
36445;SDS011;22472;50.848;-1.216;2023-06-22T15:07:30;5.13;;;1.90;;
36445;SDS011;22472;50.848;-1.216;2023-06-22T15:09:57;3.90;;;1.98;;
36445;SDS011;22472;50.848;-1.216;2023-06-22T15:12:25;2.78;;;1.70;;
36445;SDS011;22472;50.848;-1.216;2023-06-22T15:14:52;3.65;;;1.63;;
36445;SDS011;22472;50.848;-1.216;2023-06-22T15:17:19;3.13;;;1.80;;
36445;SDS011;22472;50.848;-1.216;2023-06-22T15:19:47;3.83;;;1.80;;
36445;SDS011;22472;50.848;-1.216;2023-06-22T15:22:15;3.13;;;1.70;;
36445;SDS011;22472;50.848;-1.216;2023-06-22T15:24:44;3.88;;;1.75;;
36445;SDS011;22472;50.848;-1.216;2023-06-22T15:27:13;3.78;;;1.90;;
36445;SDS011;22472;50.848;-1.216;2023-06-22T15:29:40;2.50;;;1.70;;
36445;SDS011;22472;50.848;-1.216;2023-06-22T15:32:07;4.68;;;1.40;;
36445;SDS011;22472;50.848;-1.216;2023-06-22T15:34:35;3.85;;;1.80;;